WetterOnline ( https://www.wetteronline.de )

Wetter aktuell Offenbach

Aktuelles Wetter: Offenbach (119m)

6-stündlich | Neueste Meldungen
Ortszeit Temperatur Wetter
Mo, 20.05. 2:00 12.3° C wolkig
So, 19.05. 20:00 17.6° C wolkig
So, 19.05. 14:00 21.7° C wolkig
So, 19.05. 8:00 13.3° C bedeckt
So, 19.05. 2:00 13.2° C leichter Regen
Sa, 18.05. 20:00 18.6° C bedeckt
Sa, 18.05. 14:00 21.0° C wolkig
Sa, 18.05. 8:00 11.0° C wolkig
Ortszeit Temperatur Wetter
Mo, 20.05. 4:30 9.7° C wolkig
Mo, 20.05. 4:20 9.7° C wolkig
Mo, 20.05. 4:10 9.9° C wolkig
Mo, 20.05. 4:00 10.0° C wolkig
Mo, 20.05. 3:50 10.0° C wolkig
Mo, 20.05. 3:40 10.2° C wolkig
Mo, 20.05. 3:30 10.3° C wolkig
Mo, 20.05. 3:00 10.7° C leicht bewölkt
Mo, 20.05. 2:30 11.1° C leicht bewölkt
Mo, 20.05. 2:00 12.3° C wolkig
Mo, 20.05. 1:30 11.6° C wolkenlos
Ortszeit Relative Feuchte Sichtweite
Mo, 20.05. 2:00 88% 35 km
So, 19.05. 20:00 61% 50 km
So, 19.05. 14:00 47% 55 km
So, 19.05. 8:00 93% 9 km
So, 19.05. 2:00 95% 19 km
Sa, 18.05. 20:00 70% 40 km
Sa, 18.05. 14:00 45% 65 km
Sa, 18.05. 8:00 90% 30 km
Ortszeit Relative Feuchte Sichtweite
Mo, 20.05. 4:30 97% 9 km
Mo, 20.05. 4:20 97% -
Mo, 20.05. 4:10 97% -
Mo, 20.05. 4:00 97% 14 km
Mo, 20.05. 3:50 97% -
Mo, 20.05. 3:40 96% -
Mo, 20.05. 3:30 96% 13 km
Mo, 20.05. 3:00 95% 16 km
Mo, 20.05. 2:30 94% 22 km
Mo, 20.05. 2:00 88% 35 km
Mo, 20.05. 1:30 90% 30 km
Ortszeit Niederschlagsmenge Niederschlagsart
Mo, 20.05. 2:00 0.0 l/m2 in 6 Std. -
So, 19.05. 20:00 0.1 l/m2 in 12 Std. Regen
So, 19.05. 14:00 0.0 l/m2 in 6 Std. -
So, 19.05. 8:00 4 l/m2 in 12 Std. Regen
So, 19.05. 2:00 4 l/m2 in 6 Std. Regen
Sa, 18.05. 20:00 0.1 l/m2 in 12 Std. Regen
Sa, 18.05. 14:00 0.0 l/m2 in 6 Std. -
Sa, 18.05. 8:00 0.0 l/m2 in 12 Std. -
Ortszeit Niederschlagsmenge Niederschlagsart
Mo, 20.05. 4:30 0.0 l/m2 in 1 Std. -
Mo, 20.05. 4:20 keine Meldung -
Mo, 20.05. 4:10 keine Meldung -
Mo, 20.05. 4:00 0.0 l/m2 in 1 Std. -
Mo, 20.05. 3:50 keine Meldung -
Mo, 20.05. 3:40 keine Meldung -
Mo, 20.05. 3:30 0.0 l/m2 in 1 Std. -
Mo, 20.05. 3:00 0.0 l/m2 in 1 Std. -
Mo, 20.05. 2:30 0.0 l/m2 in 1 Std. -
Mo, 20.05. 2:00 0.0 l/m2 in 1 Std. -
Mo, 20.05. 1:30 0.0 l/m2 in 1 Std. -
Ortszeit Stärke Spitze Richtung
km/h Bft. km/h Grad Sektor
Mo, 20.05. 2:00 4 1 14 10° N
So, 19.05. 20:00 7 2 25 10° N
So, 19.05. 14:00 6 1 15 210° SW
So, 19.05. 8:00 4 1 14 260° W
So, 19.05. 2:00 6 1 37 330° NW
Sa, 18.05. 20:00 2 1 22 160° S
Sa, 18.05. 14:00 7 2 18 80° O
Sa, 18.05. 8:00 6 1 7 30° NO
Ortszeit Stärke Spitze Richtung
km/h Bft. km/h Grad Sektor
Mo, 20.05. 4:30 4 1 4 70° O
Mo, 20.05. 4:20 4 1 - 70° O
Mo, 20.05. 4:10 4 1 - 130° SO
Mo, 20.05. 4:00 4 1 7 260° W
Mo, 20.05. 3:50 4 1 - 260° W
Mo, 20.05. 3:40 0 0 - 240° SW
Mo, 20.05. 3:30 2 1 6 160° S
Mo, 20.05. 3:00 2 1 6 140° SO
Mo, 20.05. 2:30 4 1 4 60° NO
Mo, 20.05. 2:00 4 1 7 10° N
Mo, 20.05. 1:30 6 1 7 70° O
Ortszeit Untergrenze Bedeckung Gattung
total tief tief mittel hoch
Mo, 20.05. 2:00 2700 m 5/8 5/8 - - -
So, 19.05. 20:00 3000 m 7/8 1/8 - - -
So, 19.05. 14:00 4200 m 8/8 8/8 - - -
So, 19.05. 8:00 3000 m 8/8 8/8 - - -
So, 19.05. 2:00 2100 m 7/8 7/8 - - -
Sa, 18.05. 20:00 3900 m 8/8 8/8 - - -
Sa, 18.05. 14:00 1500 m 7/8 3/8 - - -
Sa, 18.05. 8:00 2400 m 8/8 3/8 - - -
Ortszeit Bedeckungsgrad in Achtel und Wolkenuntergrenze
Mo, 20.05. 4:30 8(8100m) 8(9000m) 8(9000m)
Mo, 20.05. 4:20 8(8100m) 8(9000m) 8(9000m)
Mo, 20.05. 4:10 8(8400m) 8(9000m)
Mo, 20.05. 4:00 8(8400m) 8(9000m)
Mo, 20.05. 3:50 8(8400m) 8(9000m)
Mo, 20.05. 3:40 8(8700m) 8(9000m)
Mo, 20.05. 3:30 8(9000m) 8(9000m)
Mo, 20.05. 3:00 3(9000m) 5(9000m)
Mo, 20.05. 2:30 2(2400m)
Mo, 20.05. 2:00 5(2700m)
Mo, 20.05. 1:30 keine Wolken
Ortszeit Luftdruck NN (hPa) Tendenz (hPa in 3 Std.)
Mo, 20.05. 2:00 1004 + 0,1
So, 19.05. 20:00 1003 + 0,6
So, 19.05. 14:00 1003 - 1,2
So, 19.05. 8:00 1005 + 0,3
So, 19.05. 2:00 1006 - 0,2
Sa, 18.05. 20:00 1004 + 0,1
Sa, 18.05. 14:00 1005 - 0,9
Sa, 18.05. 8:00 1006 + 0,3
Ortszeit Luftdruck NN (hPa) Tendenz (hPa in 3 Std.)
Mo, 20.05. 4:30 1004 - 0,5
Mo, 20.05. 4:20 1004 keine Meldung
Mo, 20.05. 4:10 1004 keine Meldung
Mo, 20.05. 4:00 1004 - 0,6
Mo, 20.05. 3:50 1004 keine Meldung
Mo, 20.05. 3:40 1004 keine Meldung
Mo, 20.05. 3:30 1004 - 0,5
Mo, 20.05. 3:00 1004 - 0,2
Mo, 20.05. 2:30 1004 - 0,1
Mo, 20.05. 2:00 1004 + 0,1
Mo, 20.05. 1:30 1004 + 0,3
Ortszeit Schneehöhe (cm)
Mo, 20.05. 2:00 -
So, 19.05. 20:00 -
So, 19.05. 14:00 -
So, 19.05. 8:00 -
So, 19.05. 2:00 -
Sa, 18.05. 20:00 -
Sa, 18.05. 14:00 -
Sa, 18.05. 8:00 -
Ortszeit Schneehöhe (cm)
Mo, 20.05. 4:30 -
Mo, 20.05. 4:20 -
Mo, 20.05. 4:10 -
Mo, 20.05. 4:00 -
Mo, 20.05. 3:50 -
Mo, 20.05. 3:40 -
Mo, 20.05. 3:30 -
Mo, 20.05. 3:00 -
Mo, 20.05. 2:30 -
Mo, 20.05. 2:00 -
Mo, 20.05. 1:30 -
Link zu dieser Seite / Seite empfehlen

Das Wetter in ...